Pagina principală
METAR-TAF:

METAR-TAF

Aeroporturi :

Aeroportul Internațional Shanghai Pudong

Shanghai-Pudong, China

Latitudine: 31-07N, longitudine: 121-46E, elevație: 4 m

Observații meteo curente

Raportul a fost făcut în urmă cu 26 de minute, la 10:00 UTC
Vânt 10 kt de la Sud
Temperatură 32°C
Umiditate 75%
Presiune 1006 hPa
Vizibilitate de 10 km sau mai mult
nu există nori sub 1.500 m și nici cumulonimbus

METAR: ZSPD 171000Z 17005MPS CAVOK 32/27 Q1006 NOSIG

Ora: 18:26 (10:26 UTC)

Prognoză

Raportul a fost făcut în urmă cu 7 ore și 24 de minute, la 03:02 UTC
Prognoză valabilă de la 17 ora 06 UTC la 18 ora 12 UTC
Vânt 8 kt de la Sud
Vizibilitate: 8000 m
Nori împrăștiați la o înălțime de 2000 picior

TAF: ZSPD 170302Z 1706/1812 19004MPS 8000 SCT020 TX36/1706Z TX37/1806Z TN27/1721Z

Observații și prognoze meteo pentru peste 4.000 de aeroporturi (rapoarte METAR și TAF).

Stațiile disponibile sunt reprezentate pe hartă prin puncte galbene și roșii.

Țineți indicatorul mouse-ului pe punctul dorit pentru a vedea denumirea stației.

Apoi, faceți clic pentru a vedea observațiile și prognozele meteorologice.

Pentru a schimba harta: Pentru mărire, faceți clic pe butoanele verzi cu cruce neagră; pentru micșorare, pe butonul verde cu o liniuță; pentru hărți învecinate, pe săgețile verzi.


METAR-TAF: